Time;durP1;ratioP1;P1;durP2;ratioP2;P2;SDS_P1;SDS_P2;PMS_P1;PMS_P2;Temp;Humidity;BMP_temperature;BMP_pressure;BME280_temperature;BME280_humidity;BME280_pressure;Samples;Min_cycle;Max_cycle;Signal;HPM_P1;HPM_P2
2022/01/03 00:01:11;;;;;;;9.83;1.87;;;13.00;99.90;;;;;;5022596;28;20427;-74
2022/01/03 00:03:58;;;;;;;7.40;2.07;;;12.90;99.90;;;;;;5014255;28;20434;-73
2022/01/03 00:06:45;;;;;;;5.50;1.63;;;12.90;99.90;;;;;;5024416;28;20445;-71
2022/01/03 00:09:32;;;;;;;10.23;2.30;;;13.00;99.90;;;;;;5021321;28;20941;-72
2022/01/03 00:12:20;;;;;;;4.43;1.83;;;13.00;99.90;;;;;;5028027;28;20421;-72
2022/01/03 00:15:08;;;;;;;5.37;1.40;;;13.00;99.90;;;;;;5026473;28;20468;-72
2022/01/03 00:17:54;;;;;;;9.47;2.33;;;13.00;99.90;;;;;;5025987;28;20945;-72
2022/01/03 00:20:43;;;;;;;9.20;2.30;;;13.00;99.90;;;;;;5032391;28;20444;-72
2022/01/03 00:23:33;;;;;;;7.60;2.10;;;13.00;99.90;;;;;;5026230;28;20840;-72
2022/01/03 00:26:24;;;;;;;5.20;1.90;;;13.00;99.90;;;;;;5027487;28;20434;-71
2022/01/03 00:29:14;;;;;;;11.70;3.70;;;13.00;99.90;;;;;;5034930;28;20411;-73
2022/01/03 00:32:00;;;;;;;8.10;2.57;;;13.10;99.90;;;;;;5029578;28;20492;-73
2022/01/03 00:34:47;;;;;;;5.63;1.40;;;13.00;99.90;;;;;;5024545;28;20452;-73
2022/01/03 00:37:36;;;;;;;7.90;1.20;;;12.90;99.90;;;;;;5028626;28;20874;-72
2022/01/03 00:40:22;;;;;;;2.63;0.93;;;12.50;99.90;;;;;;5034523;28;20550;-71
2022/01/03 00:43:08;;;;;;;3.57;0.90;;;11.90;99.90;;;;;;5034994;28;20586;-72
2022/01/03 00:45:55;;;;;;;7.13;0.90;;;11.30;99.90;;;;;;5035403;28;20490;-72
2022/01/03 00:48:41;;;;;;;2.80;0.80;;;11.00;99.90;;;;;;5025354;28;20556;-73
2022/01/03 00:51:27;;;;;;;4.83;1.30;;;10.60;99.90;;;;;;5018818;28;20937;-72
2022/01/03 00:54:14;;;;;;;4.13;0.80;;;10.50;99.90;;;;;;5025093;28;20446;-72
2022/01/03 00:57:04;;;;;;;5.93;1.20;;;10.40;99.90;;;;;;5034619;28;20539;-71
2022/01/03 00:59:59;;;;;;;2.30;0.90;;;10.40;99.90;;;;;;5030356;28;20421;-72
2022/01/03 01:02:51;;;;;;;1.67;0.67;;;10.30;99.90;;;;;;5023388;28;20509;-72
2022/01/03 01:05:39;;;;;;;4.73;1.23;;;10.20;99.90;;;;;;5023123;28;20514;-72
2022/01/03 01:08:26;;;;;;;7.97;1.00;;;10.20;99.90;;;;;;5031056;28;20497;-72
2022/01/03 01:11:13;;;;;;;5.27;1.17;;;10.10;99.90;;;;;;5019747;28;20977;-72
2022/01/03 01:14:00;;;;;;;4.40;1.17;;;10.30;99.90;;;;;;5034142;28;20940;-73
2022/01/03 01:16:46;;;;;;;6.77;1.07;;;10.30;99.90;;;;;;5014980;28;20490;-72
2022/01/03 01:19:32;;;;;;;3.27;1.10;;;10.30;99.90;;;;;;5027108;28;20438;-72
2022/01/03 01:22:20;;;;;;;4.27;1.53;;;10.30;99.90;;;;;;5026596;28;20453;-72
2022/01/03 01:28:15;;;;;;;2.70;1.10;;;10.20;99.90;;;;;;5043523;28;20491;-72
2022/01/03 01:31:02;;;;;;;4.30;1.30;;;10.20;99.90;;;;;;5033049;28;20436;-72
2022/01/03 01:33:53;;;;;;;2.70;0.80;;;10.20;99.90;;;;;;5033685;28;20530;-73
2022/01/03 01:36:41;;;;;;;4.53;1.00;;;10.20;99.90;;;;;;5030340;28;20511;-71
2022/01/03 01:39:30;;;;;;;7.60;1.10;;;10.20;99.90;;;;;;5033983;28;20447;-72
2022/01/03 01:42:20;;;;;;;5.33;1.00;;;10.10;99.90;;;;;;5031157;28;20619;-71
2022/01/03 01:45:09;;;;;;;3.23;0.90;;;10.20;99.90;;;;;;5033960;28;20770;-72
2022/01/03 01:47:59;;;;;;;3.20;0.83;;;10.10;99.90;;;;;;5014543;28;20455;-72
2022/01/03 01:50:50;;;;;;;3.17;0.87;;;10.10;99.90;;;;;;5019553;28;20588;-72
2022/01/03 01:53:41;;;;;;;3.33;0.70;;;10.10;99.90;;;;;;5029869;28;20926;-72
2022/01/03 01:56:33;;;;;;;3.00;0.70;;;10.20;99.90;;;;;;5033742;28;20399;-72
2022/01/03 01:59:21;;;;;;;1.77;0.73;;;10.20;99.90;;;;;;5033451;28;20451;-72
2022/01/03 02:02:10;;;;;;;9.17;1.27;;;10.20;99.90;;;;;;5032611;28;20614;-72
2022/01/03 02:05:19;;;;;;;3.70;0.70;;;10.30;99.90;;;;;;5033026;28;20555;-71
2022/01/03 02:08:12;;;;;;;4.53;1.20;;;10.30;99.90;;;;;;5032212;28;20532;-72
2022/01/03 02:11:04;;;;;;;2.33;0.90;;;10.30;99.90;;;;;;5016092;28;20446;-72
2022/01/03 02:13:51;;;;;;;7.40;1.20;;;10.30;99.90;;;;;;5032751;28;20641;-72
2022/01/03 02:16:38;;;;;;;5.17;0.97;;;10.30;99.90;;;;;;5032608;28;20399;-71
2022/01/03 02:19:25;;;;;;;5.70;0.87;;;10.30;99.90;;;;;;5013596;28;20422;-72
2022/01/03 02:22:13;;;;;;;4.63;1.37;;;10.40;99.90;;;;;;5031093;28;20440;-72
2022/01/03 02:24:58;;;;;;;5.73;1.03;;;10.30;99.90;;;;;;5033516;28;20454;-72
2022/01/03 02:27:46;;;;;;;1.80;0.70;;;10.30;99.90;;;;;;5026832;28;20458;-72
2022/01/03 02:30:33;;;;;;;6.87;1.10;;;10.30;99.90;;;;;;5024980;28;20436;-72
2022/01/03 02:33:19;;;;;;;2.30;0.90;;;10.40;99.90;;;;;;5048881;22;20527;-74
2022/01/03 02:36:05;;;;;;;6.83;1.20;;;10.40;99.90;;;;;;5037109;28;20960;-72
2022/01/03 02:38:53;;;;;;;2.23;0.80;;;10.30;99.90;;;;;;5040758;28;20563;-74
2022/01/03 02:41:39;;;;;;;4.87;1.13;;;10.30;99.90;;;;;;5034334;28;20434;-72
2022/01/03 02:44:25;;;;;;;4.90;1.30;;;10.20;99.90;;;;;;5025367;28;20442;-72
2022/01/03 02:47:11;;;;;;;2.57;0.87;;;10.20;99.90;;;;;;5025572;28;20419;-71
2022/01/03 02:49:57;;;;;;;2.57;0.90;;;10.10;99.90;;;;;;5014888;28;21043;-73
2022/01/03 02:52:43;;;;;;;4.17;1.10;;;10.20;99.90;;;;;;5012164;28;20961;-70
2022/01/03 02:55:31;;;;;;;4.03;1.10;;;10.20;99.90;;;;;;5007969;28;20573;-72
2022/01/03 02:58:17;;;;;;;5.07;1.07;;;10.10;99.90;;;;;;5011895;28;20456;-72
2022/01/03 03:01:03;;;;;;;5.47;1.63;;;10.10;99.90;;;;;;5018420;28;20586;-72
2022/01/03 03:03:50;;;;;;;6.30;1.20;;;10.20;99.90;;;;;;5018046;28;20671;-71
2022/01/03 03:06:36;;;;;;;6.90;1.40;;;10.30;99.90;;;;;;5015879;28;20456;-72
2022/01/03 03:09:21;;;;;;;5.07;1.10;;;10.20;99.90;;;;;;5015356;28;21131;-72
2022/01/03 03:12:09;;;;;;;5.43;1.40;;;10.30;99.90;;;;;;5013239;28;20938;-72
2022/01/03 03:14:55;;;;;;;4.03;1.30;;;10.10;99.90;;;;;;5019168;28;20580;-74
2022/01/03 03:17:42;;;;;;;4.60;1.37;;;10.10;99.90;;;;;;5010224;28;20423;-72
2022/01/03 03:20:28;;;;;;;3.33;1.20;;;10.10;99.90;;;;;;5009759;28;20466;-74
2022/01/03 03:23:14;;;;;;;3.50;1.43;;;10.00;99.90;;;;;;5016116;28;20539;-74
2022/01/03 03:26:00;;;;;;;4.70;1.00;;;10.10;99.90;;;;;;5017024;28;20392;-73
2022/01/03 03:28:47;;;;;;;5.70;1.23;;;10.10;99.90;;;;;;5010147;28;20462;-73
2022/01/03 03:31:32;;;;;;;3.10;1.10;;;10.00;99.90;;;;;;5012824;28;20420;-74
2022/01/03 03:34:18;;;;;;;4.23;1.23;;;10.00;99.90;;;;;;5021674;28;20480;-73
2022/01/03 03:37:04;;;;;;;5.77;1.23;;;10.00;99.90;;;;;;5015194;28;20581;-73
2022/01/03 03:39:50;;;;;;;6.50;1.47;;;10.10;99.90;;;;;;5008360;28;20815;-74
2022/01/03 03:42:35;;;;;;;4.57;1.70;;;10.10;99.90;;;;;;5024037;28;20570;-73
2022/01/03 03:45:23;;;;;;;4.00;1.23;;;10.10;99.90;;;;;;5021607;28;20445;-74
2022/01/03 03:48:09;;;;;;;2.53;0.90;;;10.10;99.90;;;;;;5016074;28;20576;-74
2022/01/03 03:50:54;;;;;;;3.70;0.90;;;10.10;99.90;;;;;;5015952;28;20403;-74
2022/01/03 03:53:40;;;;;;;6.60;2.40;;;10.20;99.90;;;;;;5018487;28;20649;-73
2022/01/03 03:56:26;;;;;;;3.40;0.80;;;10.20;99.90;;;;;;5018082;28;20454;-74
2022/01/03 03:59:11;;;;;;;4.40;1.10;;;10.20;99.90;;;;;;5010760;28;20815;-73
2022/01/03 04:01:58;;;;;;;4.10;1.20;;;10.20;99.90;;;;;;5018704;28;20441;-74
2022/01/03 04:04:44;;;;;;;10.67;1.50;;;10.20;99.90;;;;;;5016263;28;20829;-74
2022/01/03 04:07:29;;;;;;;3.37;1.00;;;10.10;99.90;;;;;;5018456;28;20543;-74
2022/01/03 04:10:16;;;;;;;8.37;1.50;;;10.10;99.90;;;;;;5023102;28;20427;-73
2022/01/03 04:13:02;;;;;;;2.10;1.00;;;10.10;99.90;;;;;;5021767;28;20475;-74
2022/01/03 04:15:47;;;;;;;4.87;1.40;;;10.10;99.90;;;;;;5025636;28;20523;-73
2022/01/03 04:18:35;;;;;;;5.03;1.10;;;10.00;99.90;;;;;;5010968;28;20432;-74
2022/01/03 04:21:21;;;;;;;5.00;1.43;;;10.00;99.90;;;;;;5018735;28;20524;-74
2022/01/03 04:24:08;;;;;;;6.67;1.40;;;10.00;99.90;;;;;;5022781;28;20446;-74
2022/01/03 04:26:54;;;;;;;4.10;0.90;;;10.00;99.90;;;;;;5010430;28;20441;-73
2022/01/03 04:29:39;;;;;;;2.90;1.00;;;10.00;99.90;;;;;;5008900;28;20419;-73
2022/01/03 04:32:25;;;;;;;4.73;1.10;;;10.10;99.90;;;;;;5021993;28;20469;-74
2022/01/03 04:35:12;;;;;;;4.80;1.30;;;10.00;99.90;;;;;;5019503;28;20480;-73
2022/01/03 04:37:58;;;;;;;7.13;1.07;;;10.00;99.90;;;;;;5012232;28;20822;-73
2022/01/03 04:40:43;;;;;;;2.17;1.10;;;10.00;99.90;;;;;;5030137;28;20546;-74
2022/01/03 04:43:29;;;;;;;5.53;1.83;;;10.00;99.90;;;;;;5017242;28;20506;-73
2022/01/03 04:46:15;;;;;;;8.93;2.10;;;10.00;99.90;;;;;;5028858;28;20395;-73
2022/01/03 04:49:00;;;;;;;7.10;1.43;;;10.10;99.90;;;;;;5005651;28;20449;-72
2022/01/03 04:51:47;;;;;;;4.17;1.13;;;10.10;99.90;;;;;;5004401;28;20457;-74
2022/01/03 04:54:33;;;;;;;4.90;1.40;;;10.10;99.90;;;;;;5015291;28;20436;-73
2022/01/03 04:57:18;;;;;;;4.17;1.17;;;10.10;99.90;;;;;;5025538;28;20421;-74
2022/01/03 05:00:06;;;;;;;7.33;1.43;;;10.10;99.90;;;;;;5020473;28;20440;-74
2022/01/03 05:02:51;;;;;;;8.87;1.57;;;10.10;99.90;;;;;;5014091;28;20442;-73
2022/01/03 05:05:37;;;;;;;8.07;1.80;;;10.00;99.90;;;;;;5012403;28;20442;-74
2022/01/03 05:08:24;;;;;;;12.43;3.23;;;10.00;99.90;;;;;;5013646;28;20464;-73
2022/01/03 05:11:10;;;;;;;7.27;2.37;;;10.10;99.90;;;;;;5026766;28;20415;-75
2022/01/03 05:13:55;;;;;;;12.90;2.27;;;10.10;99.90;;;;;;5017338;28;20818;-73
2022/01/03 05:16:41;;;;;;;10.07;2.60;;;10.20;99.90;;;;;;5016851;28;20447;-73
2022/01/03 05:19:27;;;;;;;14.70;1.63;;;10.20;99.90;;;;;;5021589;28;20903;-73
2022/01/03 05:22:13;;;;;;;5.40;1.77;;;10.20;99.90;;;;;;5026969;28;20452;-75
2022/01/03 05:25:00;;;;;;;6.13;2.27;;;10.20;99.90;;;;;;5023642;28;20543;-73
2022/01/03 05:27:46;;;;;;;12.50;1.80;;;10.20;99.90;;;;;;5016516;28;20426;-74
2022/01/03 05:30:31;;;;;;;8.47;2.30;;;10.20;99.90;;;;;;5025723;28;20443;-73
2022/01/03 05:33:17;;;;;;;9.10;2.63;;;10.20;99.90;;;;;;5020008;28;20475;-73
2022/01/03 05:36:02;;;;;;;9.40;1.87;;;10.20;99.90;;;;;;5029017;28;20991;-73
2022/01/03 05:38:48;;;;;;;9.90;2.30;;;10.20;99.90;;;;;;5023672;28;20415;-73
2022/01/03 05:41:35;;;;;;;14.30;2.17;;;10.20;99.90;;;;;;5019386;28;20434;-73
2022/01/03 05:44:21;;;;;;;7.20;1.80;;;10.20;99.90;;;;;;5027852;28;20550;-73
2022/01/03 05:47:07;;;;;;;11.20;3.17;;;10.20;99.90;;;;;;5006880;28;21130;-73
2022/01/03 05:49:55;;;;;;;12.00;3.10;;;10.20;99.90;;;;;;5028095;28;20995;-73
2022/01/03 05:52:40;;;;;;;6.80;2.10;;;10.30;99.90;;;;;;5025880;28;21056;-73
2022/01/03 05:55:26;;;;;;;9.53;2.30;;;10.30;99.90;;;;;;5018174;28;20590;-73
2022/01/03 05:58:14;;;;;;;17.80;2.07;;;10.30;99.90;;;;;;5011546;28;20424;-73
2022/01/03 06:01:01;;;;;;;16.63;2.33;;;10.30;99.90;;;;;;5012224;28;21121;-73
2022/01/03 06:03:46;;;;;;;10.83;2.50;;;10.40;99.90;;;;;;5020132;28;20472;-76
2022/01/03 06:06:53;;;;;;;6.87;1.80;;;10.40;99.90;;;;;;5016852;28;20527;-73
2022/01/03 06:09:39;;;;;;;7.00;2.43;;;10.40;99.90;;;;;;5020005;28;20536;-73
2022/01/03 06:12:24;;;;;;;9.47;4.13;;;10.30;99.90;;;;;;5018367;28;20446;-74
2022/01/03 06:15:11;;;;;;;9.93;2.53;;;10.30;99.90;;;;;;5025667;28;21022;-73
2022/01/03 06:17:57;;;;;;;5.57;2.03;;;10.30;99.90;;;;;;5015077;28;20903;-72
2022/01/03 06:20:44;;;;;;;8.30;2.03;;;10.30;99.90;;;;;;5024016;28;20961;-73
2022/01/03 06:23:29;;;;;;;5.80;2.17;;;10.30;99.90;;;;;;5028098;28;20435;-73
2022/01/03 06:26:15;;;;;;;6.53;1.60;;;10.30;99.90;;;;;;5018534;28;20585;-75
2022/01/03 06:29:00;;;;;;;11.63;2.00;;;10.30;99.90;;;;;;5019560;28;20437;-73
2022/01/03 06:31:48;;;;;;;9.67;1.83;;;10.20;99.90;;;;;;5014792;28;20519;-73
2022/01/03 06:34:34;;;;;;;7.37;2.40;;;10.30;99.90;;;;;;5017201;28;20491;-76
2022/01/03 06:37:20;;;;;;;8.13;1.67;;;10.30;99.90;;;;;;5015669;28;20508;-73
2022/01/03 06:40:07;;;;;;;9.00;2.00;;;10.20;99.90;;;;;;5013302;28;20420;-72
2022/01/03 06:42:53;;;;;;;9.37;2.27;;;10.10;99.90;;;;;;5016769;28;20495;-73
2022/01/03 06:45:39;;;;;;;13.20;2.80;;;10.10;99.90;;;;;;5007406;28;20438;-73
2022/01/03 06:48:25;;;;;;;8.63;2.67;;;10.10;99.90;;;;;;5027217;28;20453;-72
2022/01/03 06:51:11;;;;;;;7.70;2.43;;;10.10;99.90;;;;;;5020648;28;21080;-73
2022/01/03 06:53:57;;;;;;;9.90;2.57;;;10.10;99.90;;;;;;5010531;28;21038;-72
2022/01/03 06:56:43;;;;;;;6.80;2.40;;;10.10;99.90;;;;;;5009537;28;20450;-73
2022/01/03 06:59:29;;;;;;;10.33;3.37;;;10.10;99.90;;;;;;5018351;28;20457;-73
2022/01/03 07:02:14;;;;;;;13.73;3.87;;;10.20;99.90;;;;;;5025551;28;20961;-73
2022/01/03 07:05:01;;;;;;;16.70;3.50;;;10.30;99.90;;;;;;5016806;28;20429;-72
2022/01/03 07:07:47;;;;;;;13.33;2.70;;;10.30;99.90;;;;;;5016302;28;20936;-72
2022/01/03 07:10:32;;;;;;;15.73;3.47;;;10.30;99.90;;;;;;5027385;28;20781;-72
2022/01/03 07:13:19;;;;;;;10.03;3.20;;;10.40;99.90;;;;;;5024556;28;20466;-74
2022/01/03 07:19:08;;;;;;;14.77;4.20;;;10.50;99.90;;;;;;5013625;28;20992;-72
2022/01/03 07:21:55;;;;;;;10.07;2.80;;;10.40;99.90;;;;;;5019836;28;20987;-72
2022/01/03 07:24:42;;;;;;;10.70;2.50;;;10.40;99.90;;;;;;5016684;28;20446;-72
2022/01/03 07:27:28;;;;;;;15.50;3.20;;;10.40;99.90;;;;;;5010495;28;20446;-72
2022/01/03 07:30:14;;;;;;;9.00;2.77;;;10.40;99.90;;;;;;5012997;28;20937;-72
2022/01/03 07:33:00;;;;;;;17.23;3.50;;;10.50;99.90;;;;;;5022040;28;20518;-72
2022/01/03 07:35:46;;;;;;;15.63;3.13;;;10.50;99.90;;;;;;5006433;28;20506;-72
2022/01/03 07:38:33;;;;;;;13.00;3.13;;;10.50;99.90;;;;;;5011078;28;20579;-73
2022/01/03 07:41:19;;;;;;;11.00;2.60;;;10.50;99.90;;;;;;5020757;28;20447;-72
2022/01/03 07:44:05;;;;;;;16.33;2.23;;;10.50;99.90;;;;;;5009207;28;20469;-73
2022/01/03 07:46:50;;;;;;;14.07;2.67;;;10.50;99.90;;;;;;5009948;28;21060;-72
2022/01/03 07:49:36;;;;;;;21.80;3.00;;;10.50;99.90;;;;;;5018393;28;20483;-72
2022/01/03 07:52:22;;;;;;;15.83;2.17;;;10.50;99.90;;;;;;5018928;28;20945;-73
2022/01/03 07:55:11;;;;;;;12.17;2.90;;;10.50;99.90;;;;;;5014465;28;20440;-73
2022/01/03 07:57:56;;;;;;;8.30;2.30;;;10.60;99.90;;;;;;5011821;28;20441;-72
2022/01/03 08:00:42;;;;;;;8.80;2.30;;;10.60;99.90;;;;;;5016193;28;20427;-73
2022/01/03 08:03:28;;;;;;;12.27;3.27;;;10.60;99.90;;;;;;5017353;28;20484;-73
2022/01/03 08:06:14;;;;;;;11.17;3.33;;;10.60;99.90;;;;;;5009050;28;20871;-72
2022/01/03 08:08:59;;;;;;;14.53;2.50;;;10.60;99.90;;;;;;5025504;28;20443;-73
2022/01/03 08:11:46;;;;;;;15.03;2.53;;;10.60;99.90;;;;;;5013385;28;21076;-72
2022/01/03 08:14:32;;;;;;;9.00;2.23;;;10.60;99.90;;;;;;4996886;28;20473;-72
2022/01/03 08:17:17;;;;;;;20.27;2.77;;;10.70;99.90;;;;;;5014330;28;20547;-74
2022/01/03 08:20:04;;;;;;;11.23;2.40;;;10.60;99.90;;;;;;5020451;28;20461;-72
2022/01/03 08:22:50;;;;;;;12.23;2.33;;;10.60;99.90;;;;;;5023061;28;20435;-72
2022/01/03 08:25:37;;;;;;;5.40;1.73;;;10.60;99.90;;;;;;5010994;28;20447;-72
2022/01/03 08:28:24;;;;;;;9.20;2.40;;;10.70;99.90;;;;;;5011962;28;20923;-73
2022/01/03 08:31:10;;;;;;;13.10;2.37;;;10.70;99.90;;;;;;5024232;28;20436;-72
2022/01/03 08:33:56;;;;;;;12.53;2.43;;;10.70;99.90;;;;;;5023156;28;21195;-73
2022/01/03 08:36:41;;;;;;;13.93;2.83;;;10.70;99.90;;;;;;5020694;28;20468;-73
2022/01/03 08:39:27;;;;;;;16.80;2.87;;;10.70;99.90;;;;;;5005343;28;20425;-73
2022/01/03 08:42:13;;;;;;;18.27;3.30;;;10.70;99.90;;;;;;5017424;28;20423;-73
2022/01/03 08:45:00;;;;;;;13.17;2.83;;;10.70;99.90;;;;;;5017460;28;20418;-73
2022/01/03 08:47:46;;;;;;;11.90;3.37;;;10.70;99.90;;;;;;5017457;28;20467;-73
2022/01/03 08:50:32;;;;;;;10.47;2.57;;;10.80;99.90;;;;;;5021323;28;20507;-73
2022/01/03 08:53:18;;;;;;;17.63;3.43;;;10.70;99.90;;;;;;5021465;28;20472;-73
2022/01/03 08:56:04;;;;;;;16.90;3.97;;;10.70;99.90;;;;;;5018880;28;20998;-73
2022/01/03 08:58:49;;;;;;;14.10;2.70;;;10.60;99.90;;;;;;5024010;28;20936;-73
2022/01/03 09:01:36;;;;;;;9.73;2.30;;;10.60;99.90;;;;;;5027538;28;20608;-73
2022/01/03 09:04:22;;;;;;;13.50;3.00;;;10.60;99.90;;;;;;5016326;28;20435;-73
2022/01/03 09:07:08;;;;;;;11.00;2.70;;;10.60;99.90;;;;;;5031811;28;20428;-74
2022/01/03 09:09:53;;;;;;;8.27;3.10;;;10.60;99.90;;;;;;5018445;28;20428;-73
2022/01/03 09:12:39;;;;;;;18.07;4.63;;;10.70;99.90;;;;;;5014643;28;20452;-74
2022/01/03 10:39:12;;;;;;;10.63;2.50;;;11.30;99.90;;;;;;5376820;23;20584;-73
2022/01/03 10:42:15;;;;;;;10.43;3.03;;;11.30;99.90;;;;;;4934875;29;20980;-72
2022/01/03 10:45:01;;;;;;;16.70;2.87;;;11.30;99.90;;;;;;4934001;29;20461;-72
2022/01/03 10:47:47;;;;;;;9.97;2.37;;;11.30;99.90;;;;;;4934478;29;20597;-72
2022/01/03 10:50:32;;;;;;;11.67;2.57;;;11.30;99.90;;;;;;4934998;29;20447;-71
2022/01/03 10:53:32;;;;;;;14.03;2.50;;;11.30;99.90;;;;;;4933522;29;20465;-73
2022/01/03 10:56:24;;;;;;;16.40;2.90;;;11.30;99.90;;;;;;4929697;29;20480;-72
2022/01/03 10:59:23;;;;;;;17.37;3.47;;;11.30;99.90;;;;;;4932637;29;20448;-72
2022/01/03 11:02:10;;;;;;;18.50;3.87;;;11.20;99.90;;;;;;4943022;29;20425;-73
2022/01/03 11:04:59;;;;;;;13.27;4.00;;;11.10;99.90;;;;;;4935102;29;20408;-71
2022/01/03 11:10:50;;;;;;;20.40;3.20;;;11.10;99.90;;;;;;4932468;29;20422;-71
2022/01/03 11:13:41;;;;;;;11.27;2.43;;;11.10;99.90;;;;;;4932538;29;20449;-71
2022/01/03 11:16:32;;;;;;;11.73;2.37;;;11.20;99.90;;;;;;4944444;29;20530;-71
2022/01/03 11:19:34;;;;;;;7.20;2.27;;;11.20;99.90;;;;;;4966517;23;20815;-72
2022/01/03 11:22:42;;;;;;;17.77;3.73;;;11.20;99.90;;;;;;4950297;28;20490;-74
2022/01/03 11:25:30;;;;;;;12.93;4.30;;;11.30;99.90;;;;;;4950512;28;20556;-73
2022/01/03 11:28:16;;;;;;;12.50;3.43;;;11.30;99.90;;;;;;4960675;28;20452;-73
2022/01/03 11:31:04;;;;;;;13.30;3.27;;;11.30;99.90;;;;;;4954065;28;20444;-72
2022/01/03 11:33:51;;;;;;;20.47;2.97;;;11.30;99.90;;;;;;4951841;28;20451;-72
2022/01/03 11:36:39;;;;;;;12.97;2.70;;;11.30;99.90;;;;;;4952803;28;20475;-72
2022/01/03 11:39:32;;;;;;;24.60;2.93;;;11.30;99.90;;;;;;4970263;28;20463;-72
2022/01/03 11:42:21;;;;;;;14.07;2.33;;;11.40;99.90;;;;;;4965697;28;20659;-72
2022/01/03 11:45:08;;;;;;;9.77;2.50;;;11.40;99.90;;;;;;4950898;28;20460;-71
2022/01/03 11:47:55;;;;;;;11.10;2.63;;;11.40;99.90;;;;;;4954519;28;20559;-72
2022/01/03 11:50:42;;;;;;;13.80;3.20;;;11.30;99.90;;;;;;4951827;28;20470;-72
2022/01/03 11:53:28;;;;;;;19.97;4.17;;;11.30;99.90;;;;;;4949683;28;20454;-72
2022/01/03 11:56:18;;;;;;;15.10;3.30;;;11.40;99.90;;;;;;4956413;28;21032;-71
2022/01/03 11:59:21;;;;;;;13.60;2.63;;;11.30;99.90;;;;;;4953713;28;20406;-71
2022/01/03 12:05:26;;;;;;;13.30;3.13;;;11.40;99.90;;;;;;4851299;29;20464;-72
2022/01/03 12:08:21;;;;;;;13.40;3.00;;;11.50;99.90;;;;;;4838592;29;20425;-72
2022/01/03 12:11:23;;;;;;;11.10;2.60;;;11.50;99.90;;;;;;4933831;29;20479;-72
2022/01/03 12:14:11;;;;;;;12.93;2.93;;;11.50;99.90;;;;;;4952320;28;20425;-72
2022/01/03 12:17:05;;;;;;;17.60;3.47;;;11.50;99.90;;;;;;4947224;29;20838;-72
2022/01/03 12:20:03;;;;;;;16.83;3.20;;;11.50;99.90;;;;;;4948952;28;20582;-72
2022/01/03 12:22:51;;;;;;;12.20;2.53;;;11.50;99.90;;;;;;4936338;29;20531;-72
2022/01/03 12:25:38;;;;;;;10.73;2.77;;;11.60;99.90;;;;;;4948530;29;20456;-72
2022/01/03 12:28:24;;;;;;;10.20;2.23;;;11.60;99.90;;;;;;4949140;28;20507;-72
2022/01/03 12:31:09;;;;;;;14.47;2.67;;;11.60;99.90;;;;;;4941930;29;20450;-72
2022/01/03 12:34:19;;;;;;;13.63;3.13;;;11.60;99.90;;;;;;4947674;28;20942;-72
2022/01/03 12:37:19;;;;;;;12.73;2.20;;;11.60;99.90;;;;;;4950620;29;20472;-72
2022/01/03 12:40:14;;;;;;;18.13;2.30;;;11.60;99.90;;;;;;4952865;28;20487;-72
2022/01/03 12:43:02;;;;;;;24.70;3.40;;;11.60;99.90;;;;;;4941194;28;20449;-71
2022/01/03 12:45:55;;;;;;;10.80;3.50;;;11.60;99.90;;;;;;4948678;29;20415;-73
2022/01/03 12:48:41;;;;;;;19.20;2.70;;;11.50;99.90;;;;;;4950480;28;20434;-71
2022/01/03 12:51:39;;;;;;;9.60;2.50;;;11.50;99.90;;;;;;4970608;28;20441;-71
2022/01/03 12:54:39;;;;;;;11.53;2.67;;;11.50;99.90;;;;;;4947327;28;20422;-71
2022/01/03 12:57:31;;;;;;;14.80;4.40;;;11.60;99.90;;;;;;4950713;29;20475;-71
2022/01/03 13:00:39;;;;;;;10.70;2.80;;;11.60;99.90;;;;;;4945215;28;20463;-71
2022/01/03 13:03:26;;;;;;;9.50;2.80;;;11.70;99.90;;;;;;4945353;28;20422;-71
2022/01/03 13:06:13;;;;;;;13.70;2.50;;;11.60;99.90;;;;;;4941964;29;20411;-71
2022/01/03 13:09:11;;;;;;;8.87;2.63;;;11.60;99.90;;;;;;4946180;29;20440;-71
2022/01/03 13:12:00;;;;;;;9.00;2.90;;;11.60;99.90;;;;;;4945179;28;20459;-70
2022/01/03 13:14:47;;;;;;;8.23;2.23;;;11.60;99.90;;;;;;4946663;29;20459;-72
2022/01/03 13:17:33;;;;;;;7.37;2.10;;;11.60;99.90;;;;;;4951837;28;20471;-73
2022/01/03 13:20:19;;;;;;;7.30;2.13;;;11.60;99.90;;;;;;4952663;29;20450;-73
2022/01/03 13:23:04;;;;;;;11.20;2.83;;;11.50;99.90;;;;;;4947739;29;20494;-73
2022/01/03 13:25:50;;;;;;;8.20;2.50;;;11.50;99.90;;;;;;4949459;28;21105;-73
2022/01/03 13:28:45;;;;;;;11.63;2.27;;;11.50;99.90;;;;;;4949872;28;20416;-72
2022/01/03 13:31:40;;;;;;;11.17;2.00;;;11.50;99.90;;;;;;4950008;29;20536;-72
2022/01/03 13:34:28;;;;;;;4.80;1.67;;;11.50;99.90;;;;;;4945400;29;20863;-72
2022/01/03 13:37:14;;;;;;;8.30;2.00;;;11.60;99.90;;;;;;4952595;29;20511;-72
2022/01/03 13:40:00;;;;;;;13.87;2.70;;;11.60;99.90;;;;;;4962790;28;20989;-72
2022/01/03 13:42:58;;;;;;;7.10;1.83;;;11.60;99.90;;;;;;4941563;29;20440;-72
2022/01/03 13:51:54;;;;;;;12.43;3.07;;;11.60;99.90;;;;;;4951400;29;20434;-72
2022/01/03 13:54:40;;;;;;;17.67;3.03;;;11.60;99.90;;;;;;4951684;28;20455;-72
2022/01/03 13:57:26;;;;;;;20.50;2.37;;;11.60;99.90;;;;;;4948149;29;20458;-72
2022/01/03 14:00:17;;;;;;;12.67;2.70;;;11.60;99.90;;;;;;4947044;28;20993;-72
2022/01/03 14:03:02;;;;;;;7.90;2.30;;;11.60;99.90;;;;;;4950335;29;20789;-72
2022/01/03 14:05:50;;;;;;;7.70;2.40;;;11.60;99.90;;;;;;4951438;29;20402;-72
2022/01/03 14:08:39;;;;;;;6.27;2.53;;;11.60;99.90;;;;;;4948413;29;20941;-72
2022/01/03 14:11:27;;;;;;;9.63;2.03;;;11.70;99.90;;;;;;4941125;29;20452;-72
2022/01/03 14:14:14;;;;;;;9.30;2.13;;;11.70;99.90;;;;;;4951533;29;20430;-72
2022/01/03 14:17:00;;;;;;;7.83;2.70;;;11.70;99.90;;;;;;4952417;29;20603;-72
2022/01/03 14:19:46;;;;;;;13.30;2.50;;;11.70;99.90;;;;;;4944979;29;20523;-72
2022/01/03 14:22:34;;;;;;;9.83;3.10;;;11.70;99.90;;;;;;4950297;29;20480;-72
2022/01/03 14:25:25;;;;;;;15.80;2.70;;;11.70;99.90;;;;;;4951108;29;20862;-72
2022/01/03 14:28:11;;;;;;;13.90;2.43;;;11.70;99.90;;;;;;4949545;28;20519;-72
2022/01/03 14:30:57;;;;;;;10.67;2.10;;;11.70;99.90;;;;;;4948691;29;20467;-72
2022/01/03 14:33:43;;;;;;;18.33;2.93;;;11.70;99.90;;;;;;4952769;29;20623;-72
2022/01/03 14:36:29;;;;;;;15.30;2.30;;;11.70;99.90;;;;;;4951100;29;20452;-72
2022/01/03 14:39:16;;;;;;;6.60;2.13;;;11.70;99.90;;;;;;4948555;29;20531;-72
2022/01/03 14:42:05;;;;;;;13.03;2.40;;;11.70;99.90;;;;;;4947344;29;20566;-72
2022/01/03 14:44:51;;;;;;;13.37;2.53;;;11.70;99.90;;;;;;4949093;29;20468;-72
2022/01/03 14:47:37;;;;;;;14.50;2.70;;;11.70;99.90;;;;;;4950052;29;20550;-72
2022/01/03 14:50:22;;;;;;;5.27;1.70;;;11.70;99.90;;;;;;4948667;29;20548;-72
2022/01/03 14:53:08;;;;;;;11.50;3.50;;;11.70;99.90;;;;;;4944527;29;20436;-72
2022/01/03 14:55:55;;;;;;;7.27;2.30;;;11.70;99.90;;;;;;4949132;28;20469;-72
2022/01/03 14:58:41;;;;;;;10.77;2.33;;;11.70;99.90;;;;;;4954498;28;20606;-72
2022/01/03 15:01:27;;;;;;;10.60;2.00;;;11.70;99.90;;;;;;4940929;28;20535;-72
2022/01/03 15:04:13;;;;;;;5.47;2.17;;;11.80;99.90;;;;;;4945369;29;20418;-72
2022/01/03 15:07:09;;;;;;;7.13;2.20;;;11.80;99.90;;;;;;4951786;29;21034;-72
2022/01/03 15:09:54;;;;;;;11.47;2.10;;;11.80;99.90;;;;;;4942186;29;21013;-72
2022/01/03 15:12:42;;;;;;;9.00;3.30;;;11.70;99.90;;;;;;4949262;29;20423;-73
2022/01/03 15:15:30;;;;;;;8.60;2.90;;;11.70;99.90;;;;;;4948928;29;20452;-72
2022/01/03 15:18:16;;;;;;;14.50;2.20;;;11.80;99.90;;;;;;4941964;29;20661;-72
2022/01/03 15:21:01;;;;;;;9.73;1.70;;;11.80;99.90;;;;;;4949808;28;20491;-72
2022/01/03 15:23:47;;;;;;;8.63;1.97;;;11.80;99.90;;;;;;4944547;29;20430;-72
2022/01/03 15:26:33;;;;;;;14.10;2.53;;;11.80;99.90;;;;;;4954185;28;21045;-72
2022/01/03 15:29:20;;;;;;;7.40;2.03;;;11.80;99.90;;;;;;4936453;28;20947;-72
2022/01/03 15:32:06;;;;;;;10.00;1.80;;;11.80;99.90;;;;;;4947603;29;20448;-72
2022/01/03 15:34:52;;;;;;;6.40;1.77;;;11.80;99.90;;;;;;4950040;29;20569;-72
2022/01/03 15:37:37;;;;;;;9.73;1.90;;;11.80;99.90;;;;;;4953371;28;20455;-72
2022/01/03 15:40:25;;;;;;;10.33;1.97;;;11.80;99.90;;;;;;4943740;29;20469;-72
2022/01/03 15:43:11;;;;;;;8.70;2.67;;;11.80;99.90;;;;;;4951044;29;20809;-72
2022/01/03 15:46:01;;;;;;;10.20;2.60;;;11.80;99.90;;;;;;4950791;29;20431;-72
2022/01/03 15:48:47;;;;;;;10.17;2.17;;;11.80;99.90;;;;;;4948679;28;20484;-72
2022/01/03 15:51:32;;;;;;;6.33;2.73;;;11.80;99.90;;;;;;4940386;29;20448;-72
2022/01/03 15:54:18;;;;;;;22.43;2.43;;;11.80;99.90;;;;;;4945600;29;20941;-72
2022/01/03 15:57:05;;;;;;;11.10;2.40;;;11.80;99.90;;;;;;4950279;28;20818;-72
2022/01/03 15:59:50;;;;;;;6.57;1.60;;;11.80;99.90;;;;;;4948665;29;20454;-73
2022/01/03 16:02:37;;;;;;;8.30;2.40;;;11.80;99.90;;;;;;4949816;28;21091;-72
2022/01/03 16:05:24;;;;;;;6.93;1.90;;;11.80;99.90;;;;;;4943087;28;20916;-71
2022/01/03 16:08:11;;;;;;;9.90;2.03;;;11.80;99.90;;;;;;4949339;29;20403;-71
2022/01/03 16:10:56;;;;;;;6.07;2.57;;;11.80;99.90;;;;;;4948567;29;20570;-71